Аэропорт: Бесовец. Петрозаводск

ICAO: ULPB

METAR:
2020-10-23 10:30:00
ULPB 231030Z 24002MPS 200V260 9999 OVC004 05/04 Q0992 R19/290150 NOSIG RMK QBB140 QFE740/0987
METAR:
Информация по данной станции не доступна